Airfield :







YOU CAN JOIN US ON...

 
LOGIN :

Register | Disclaimer

   EN    FR    IT 

 









Legend :    VFR   Marginal VFR   IFR   Intensive IFR   Very Intensive IFR
Visi :
Ceiling :
>= 8 km
>= 3000ft
5 to 8 km
1000 to 3000 ft
1500m to 5 km
500 to 1000 ft
800 to 1500m
200 to 500 ft
< 800m
< 200 ft
Symbols :   Thunderstorms  Fog  Heavy snow  Heavy precipitations  Wind > 20 kt






- Airport Elevation : 20 ft
- IATA code : BOS


KBOS - General Edward Lawrence Logan International

CURRENT METAR :
  • 170454Z 08034G44KT 1 1/2SM +RA BR BKN008 BKN013 OVC026 15/13 A2921 RMK AO2 PK WND 09044/0447 PRESFR SLP892 P0033 T01500128 401720078 $

EXPIRED METARs :
  • 170416Z 09032G41KT 1 1/2SM +RA BR BKN008 OVC012 15/13 A2928 RMK AO2 PK WND 09041/0406 PRESFR P0017 T01500128 $
  • 170354Z 09029G39KT 2SM +RA BR OVC011 15/13 A2932 RMK AO2 PK WND 08041/0335 SLP929 P0008 T01500128 $
  • 170328Z 08029G37KT 3SM RA BKN012 BKN070 OVC080 15/12 A2936 RMK AO2 PK WND 08037/0321 PRESFR P0002 T01500122 $
  • 170254Z 08028G35KT 6SM -RA FEW013 SCT031 OVC080 15/12 A2943 RMK AO2 PK WND 09035/0254 PRESFR SLP964 P0005 60007 T01500122 58093 $

TAF KBOS
Valid from the 17 at 00:00 until the 18 at 06:00 UTC


170027Z 1700/1806 10018G23KT P6SM VCSH OVC014
FM170100 10018G27KT 6SM -RA BR OVC012
FM170200 10021G37KT 3SM -RA BR OVC010
FM170500 09031G45KT 1 1/2SM +RA BR OVC008 WS020/11065KT
FM171000 12024G38KT P6SM VCSH OVC010 WS020/22030KT
FM171100 24023G37KT P6SM VCSH BKN020
FM180000 27020G33KT P6SM BKN040



MET'MAP, your aeronautical weather chart ! - Copyright ORBIFLY December 2007 - Disclaimer

ORBIFLY MET'MAP TEAM :

Programming & Development : Alexandra Zaïnal
Concept & Development : Baudouin d'Aumeries
Co-Development & Prog : Marc-Olivier Méhu
Technical & hardware support : Manuel Goepfert

Contact : metmap@orbifly.com




SOURCES & CREDITS :

   NOAA